sensor_id;sensor_type;location;lat;lon;timestamp;temperature;humidity
71994;DHT22;59861;50.268;8.648;2023-07-16T00:02:26;22.00;65.30
71994;DHT22;59861;50.268;8.648;2023-07-16T00:04:53;22.10;65.40
71994;DHT22;59861;50.268;8.648;2023-07-16T00:07:20;22.00;65.20
71994;DHT22;59861;50.268;8.648;2023-07-16T00:09:46;22.10;65.20
71994;DHT22;59861;50.268;8.648;2023-07-16T00:12:13;22.10;65.10
71994;DHT22;59861;50.268;8.648;2023-07-16T00:14:40;22.00;65.20
71994;DHT22;59861;50.268;8.648;2023-07-16T00:17:07;22.10;65.10
71994;DHT22;59861;50.268;8.648;2023-07-16T00:19:34;22.10;65.10
71994;DHT22;59861;50.268;8.648;2023-07-16T00:22:01;22.10;65.00
71994;DHT22;59861;50.268;8.648;2023-07-16T00:24:28;22.00;64.90
71994;DHT22;59861;50.268;8.648;2023-07-16T00:26:54;22.00;65.00
71994;DHT22;59861;50.268;8.648;2023-07-16T00:29:21;22.10;64.90
71994;DHT22;59861;50.268;8.648;2023-07-16T00:31:48;22.10;65.80
71994;DHT22;59861;50.268;8.648;2023-07-16T00:34:15;22.10;65.00
71994;DHT22;59861;50.268;8.648;2023-07-16T00:36:42;22.10;65.00
71994;DHT22;59861;50.268;8.648;2023-07-16T00:39:08;22.00;64.90
71994;DHT22;59861;50.268;8.648;2023-07-16T00:41:36;22.10;64.90
71994;DHT22;59861;50.268;8.648;2023-07-16T00:44:03;22.00;64.80
71994;DHT22;59861;50.268;8.648;2023-07-16T00:46:29;22.00;64.90
71994;DHT22;59861;50.268;8.648;2023-07-16T00:48:57;22.10;64.80
71994;DHT22;59861;50.268;8.648;2023-07-16T00:51:24;22.00;64.80
71994;DHT22;59861;50.268;8.648;2023-07-16T00:53:52;22.00;64.80
71994;DHT22;59861;50.268;8.648;2023-07-16T00:56:19;22.10;64.90
71994;DHT22;59861;50.268;8.648;2023-07-16T00:58:46;22.10;64.80
71994;DHT22;59861;50.268;8.648;2023-07-16T01:01:13;22.10;64.80
71994;DHT22;59861;50.268;8.648;2023-07-16T01:03:40;22.10;64.90
71994;DHT22;59861;50.268;8.648;2023-07-16T01:08:49;22.00;64.80
71994;DHT22;59861;50.268;8.648;2023-07-16T01:11:15;22.00;64.90
71994;DHT22;59861;50.268;8.648;2023-07-16T01:13:42;22.00;64.90
71994;DHT22;59861;50.268;8.648;2023-07-16T01:16:22;22.00;64.90
71994;DHT22;59861;50.268;8.648;2023-07-16T01:18:49;22.00;64.90
71994;DHT22;59861;50.268;8.648;2023-07-16T01:21:16;22.00;64.80
71994;DHT22;59861;50.268;8.648;2023-07-16T01:23:53;22.00;64.80
71994;DHT22;59861;50.268;8.648;2023-07-16T01:29:12;22.00;64.70
71994;DHT22;59861;50.268;8.648;2023-07-16T01:31:37;22.00;64.70
71994;DHT22;59861;50.268;8.648;2023-07-16T01:34:05;22.00;64.70
71994;DHT22;59861;50.268;8.648;2023-07-16T01:36:33;22.00;64.70
71994;DHT22;59861;50.268;8.648;2023-07-16T01:39:01;22.00;64.70
71994;DHT22;59861;50.268;8.648;2023-07-16T01:41:28;22.00;65.60
71994;DHT22;59861;50.268;8.648;2023-07-16T01:43:55;22.00;64.80
71994;DHT22;59861;50.268;8.648;2023-07-16T01:46:21;22.00;64.30
71994;DHT22;59861;50.268;8.648;2023-07-16T01:48:48;22.00;64.60
71994;DHT22;59861;50.268;8.648;2023-07-16T01:51:15;22.00;64.80
71994;DHT22;59861;50.268;8.648;2023-07-16T01:53:42;22.00;64.70
71994;DHT22;59861;50.268;8.648;2023-07-16T01:56:08;22.00;64.80
71994;DHT22;59861;50.268;8.648;2023-07-16T01:58:35;22.00;64.70
71994;DHT22;59861;50.268;8.648;2023-07-16T02:01:02;22.00;64.90
71994;DHT22;59861;50.268;8.648;2023-07-16T02:03:29;22.00;64.80
71994;DHT22;59861;50.268;8.648;2023-07-16T02:05:56;22.00;64.80
71994;DHT22;59861;50.268;8.648;2023-07-16T02:08:23;22.00;64.80
71994;DHT22;59861;50.268;8.648;2023-07-16T02:10:49;22.00;64.80
71994;DHT22;59861;50.268;8.648;2023-07-16T02:13:16;22.00;64.80
71994;DHT22;59861;50.268;8.648;2023-07-16T02:15:43;22.00;64.80
71994;DHT22;59861;50.268;8.648;2023-07-16T02:18:10;22.00;64.80
71994;DHT22;59861;50.268;8.648;2023-07-16T02:20:37;22.00;64.60
71994;DHT22;59861;50.268;8.648;2023-07-16T02:23:04;22.00;64.70
71994;DHT22;59861;50.268;8.648;2023-07-16T02:25:31;22.00;64.70
71994;DHT22;59861;50.268;8.648;2023-07-16T02:27:58;22.00;64.70
71994;DHT22;59861;50.268;8.648;2023-07-16T02:30:25;22.00;64.00
71994;DHT22;59861;50.268;8.648;2023-07-16T02:32:52;22.00;64.70
71994;DHT22;59861;50.268;8.648;2023-07-16T02:35:19;22.00;64.70
71994;DHT22;59861;50.268;8.648;2023-07-16T02:37:46;22.00;64.70
71994;DHT22;59861;50.268;8.648;2023-07-16T02:40:12;22.00;64.80
71994;DHT22;59861;50.268;8.648;2023-07-16T02:42:39;22.00;64.70
71994;DHT22;59861;50.268;8.648;2023-07-16T02:45:06;22.00;64.70
71994;DHT22;59861;50.268;8.648;2023-07-16T02:47:33;22.00;64.70
71994;DHT22;59861;50.268;8.648;2023-07-16T02:50:00;22.00;64.70
71994;DHT22;59861;50.268;8.648;2023-07-16T02:52:27;22.00;64.80
71994;DHT22;59861;50.268;8.648;2023-07-16T02:54:54;22.00;64.80
71994;DHT22;59861;50.268;8.648;2023-07-16T02:57:21;22.00;64.70
71994;DHT22;59861;50.268;8.648;2023-07-16T02:59:48;22.00;64.80
71994;DHT22;59861;50.268;8.648;2023-07-16T03:02:15;22.00;64.60
71994;DHT22;59861;50.268;8.648;2023-07-16T03:04:42;22.00;64.70
71994;DHT22;59861;50.268;8.648;2023-07-16T03:07:09;22.00;64.70
71994;DHT22;59861;50.268;8.648;2023-07-16T03:09:35;22.00;64.80
71994;DHT22;59861;50.268;8.648;2023-07-16T03:12:02;22.00;64.70
71994;DHT22;59861;50.268;8.648;2023-07-16T03:14:29;22.00;64.80
71994;DHT22;59861;50.268;8.648;2023-07-16T03:16:56;22.00;64.70
71994;DHT22;59861;50.268;8.648;2023-07-16T03:19:23;22.00;64.70
71994;DHT22;59861;50.268;8.648;2023-07-16T03:21:49;22.00;64.70
71994;DHT22;59861;50.268;8.648;2023-07-16T03:24:16;22.00;64.70
71994;DHT22;59861;50.268;8.648;2023-07-16T03:26:43;22.00;64.60
71994;DHT22;59861;50.268;8.648;2023-07-16T03:29:10;22.00;64.80
71994;DHT22;59861;50.268;8.648;2023-07-16T03:31:37;22.00;64.70
71994;DHT22;59861;50.268;8.648;2023-07-16T03:34:04;22.00;65.40
71994;DHT22;59861;50.268;8.648;2023-07-16T03:36:30;21.90;64.60
71994;DHT22;59861;50.268;8.648;2023-07-16T03:38:57;22.00;64.80
71994;DHT22;59861;50.268;8.648;2023-07-16T03:41:24;22.00;64.80
71994;DHT22;59861;50.268;8.648;2023-07-16T03:43:51;22.00;64.70
71994;DHT22;59861;50.268;8.648;2023-07-16T03:46:18;22.00;64.70
71994;DHT22;59861;50.268;8.648;2023-07-16T03:48:44;22.00;64.70
71994;DHT22;59861;50.268;8.648;2023-07-16T03:51:11;22.00;64.80
71994;DHT22;59861;50.268;8.648;2023-07-16T03:53:38;22.00;64.80
71994;DHT22;59861;50.268;8.648;2023-07-16T03:56:05;22.00;64.70
71994;DHT22;59861;50.268;8.648;2023-07-16T03:58:32;22.00;64.70
71994;DHT22;59861;50.268;8.648;2023-07-16T04:00:58;22.00;64.60
71994;DHT22;59861;50.268;8.648;2023-07-16T04:03:25;22.00;64.60
71994;DHT22;59861;50.268;8.648;2023-07-16T04:06:00;22.00;64.60
71994;DHT22;59861;50.268;8.648;2023-07-16T04:08:20;21.90;64.50
71994;DHT22;59861;50.268;8.648;2023-07-16T04:10:47;21.90;64.60
71994;DHT22;59861;50.268;8.648;2023-07-16T04:13:14;21.90;64.60
71994;DHT22;59861;50.268;8.648;2023-07-16T04:15:41;22.00;64.70
71994;DHT22;59861;50.268;8.648;2023-07-16T04:18:08;21.90;64.60
71994;DHT22;59861;50.268;8.648;2023-07-16T04:20:34;22.00;64.70
71994;DHT22;59861;50.268;8.648;2023-07-16T04:23:01;21.90;64.60
71994;DHT22;59861;50.268;8.648;2023-07-16T04:25:28;21.90;64.70
71994;DHT22;59861;50.268;8.648;2023-07-16T04:27:55;21.90;64.70
71994;DHT22;59861;50.268;8.648;2023-07-16T04:30:22;21.90;64.60
71994;DHT22;59861;50.268;8.648;2023-07-16T04:32:49;22.00;64.60
71994;DHT22;59861;50.268;8.648;2023-07-16T04:35:15;21.90;64.50
71994;DHT22;59861;50.268;8.648;2023-07-16T04:37:43;22.00;64.60
71994;DHT22;59861;50.268;8.648;2023-07-16T04:40:10;22.00;64.50
71994;DHT22;59861;50.268;8.648;2023-07-16T04:42:37;21.90;64.50
71994;DHT22;59861;50.268;8.648;2023-07-16T04:45:04;21.90;64.60
71994;DHT22;59861;50.268;8.648;2023-07-16T04:47:31;22.00;64.50
71994;DHT22;59861;50.268;8.648;2023-07-16T04:49:58;22.00;64.40
71994;DHT22;59861;50.268;8.648;2023-07-16T04:52:25;22.00;64.50
71994;DHT22;59861;50.268;8.648;2023-07-16T04:54:52;22.00;64.40
71994;DHT22;59861;50.268;8.648;2023-07-16T04:57:19;22.00;64.50
71994;DHT22;59861;50.268;8.648;2023-07-16T04:59:46;22.00;64.40
71994;DHT22;59861;50.268;8.648;2023-07-16T05:02:12;22.00;64.40
71994;DHT22;59861;50.268;8.648;2023-07-16T05:04:41;22.00;64.40
71994;DHT22;59861;50.268;8.648;2023-07-16T05:07:09;22.00;64.40
71994;DHT22;59861;50.268;8.648;2023-07-16T05:09:36;22.00;64.40
71994;DHT22;59861;50.268;8.648;2023-07-16T05:12:03;22.00;64.30
71994;DHT22;59861;50.268;8.648;2023-07-16T05:14:30;22.00;64.30
71994;DHT22;59861;50.268;8.648;2023-07-16T05:16:57;22.00;64.20
71994;DHT22;59861;50.268;8.648;2023-07-16T05:19:24;22.00;64.70
71994;DHT22;59861;50.268;8.648;2023-07-16T05:21:50;22.00;64.20
71994;DHT22;59861;50.268;8.648;2023-07-16T05:24:17;22.00;64.20
71994;DHT22;59861;50.268;8.648;2023-07-16T05:26:44;22.00;64.20
71994;DHT22;59861;50.268;8.648;2023-07-16T05:29:11;22.00;64.20
71994;DHT22;59861;50.268;8.648;2023-07-16T05:31:38;22.00;64.20
71994;DHT22;59861;50.268;8.648;2023-07-16T05:34:05;22.00;64.20
71994;DHT22;59861;50.268;8.648;2023-07-16T05:36:31;22.00;64.50
71994;DHT22;59861;50.268;8.648;2023-07-16T05:38:58;22.00;64.10
71994;DHT22;59861;50.268;8.648;2023-07-16T05:41:25;22.00;65.10
71994;DHT22;59861;50.268;8.648;2023-07-16T05:43:52;22.00;64.10
71994;DHT22;59861;50.268;8.648;2023-07-16T05:46:19;22.00;64.10
71994;DHT22;59861;50.268;8.648;2023-07-16T05:48:45;22.00;64.00
71994;DHT22;59861;50.268;8.648;2023-07-16T05:51:12;22.00;64.20
71994;DHT22;59861;50.268;8.648;2023-07-16T05:53:39;22.00;65.00
71994;DHT22;59861;50.268;8.648;2023-07-16T05:56:06;22.00;64.10
71994;DHT22;59861;50.268;8.648;2023-07-16T05:58:33;22.00;64.10
71994;DHT22;59861;50.268;8.648;2023-07-16T06:01:00;22.00;64.20
71994;DHT22;59861;50.268;8.648;2023-07-16T06:03:26;22.00;64.10
71994;DHT22;59861;50.268;8.648;2023-07-16T06:05:53;22.00;64.10
71994;DHT22;59861;50.268;8.648;2023-07-16T06:08:20;22.00;64.00
71994;DHT22;59861;50.268;8.648;2023-07-16T06:10:47;22.00;64.00
71994;DHT22;59861;50.268;8.648;2023-07-16T06:13:14;22.00;64.00
71994;DHT22;59861;50.268;8.648;2023-07-16T06:15:41;22.00;64.00
71994;DHT22;59861;50.268;8.648;2023-07-16T06:18:08;22.00;64.00
71994;DHT22;59861;50.268;8.648;2023-07-16T06:20:34;22.00;64.00
71994;DHT22;59861;50.268;8.648;2023-07-16T06:23:01;22.00;64.00
71994;DHT22;59861;50.268;8.648;2023-07-16T06:25:28;22.00;64.00
71994;DHT22;59861;50.268;8.648;2023-07-16T06:27:55;22.00;64.00
71994;DHT22;59861;50.268;8.648;2023-07-16T06:30:22;22.00;64.00
71994;DHT22;59861;50.268;8.648;2023-07-16T06:32:48;22.00;64.00
71994;DHT22;59861;50.268;8.648;2023-07-16T06:35:15;22.00;64.00
71994;DHT22;59861;50.268;8.648;2023-07-16T06:37:42;22.00;64.00
71994;DHT22;59861;50.268;8.648;2023-07-16T06:40:09;22.00;63.90
71994;DHT22;59861;50.268;8.648;2023-07-16T06:42:36;22.00;64.00
71994;DHT22;59861;50.268;8.648;2023-07-16T06:45:03;21.90;63.00
71994;DHT22;59861;50.268;8.648;2023-07-16T06:47:29;21.80;64.30
71994;DHT22;59861;50.268;8.648;2023-07-16T06:49:56;21.80;64.80
71994;DHT22;59861;50.268;8.648;2023-07-16T06:52:23;21.70;63.50
71994;DHT22;59861;50.268;8.648;2023-07-16T06:54:53;21.80;63.90
71994;DHT22;59861;50.268;8.648;2023-07-16T06:57:21;21.70;63.10
71994;DHT22;59861;50.268;8.648;2023-07-16T06:59:48;21.60;63.20
71994;DHT22;59861;50.268;8.648;2023-07-16T07:02:18;21.60;63.70
71994;DHT22;59861;50.268;8.648;2023-07-16T07:04:45;21.60;63.80
71994;DHT22;59861;50.268;8.648;2023-07-16T07:07:12;21.50;63.50
71994;DHT22;59861;50.268;8.648;2023-07-16T07:09:39;21.50;63.70
71994;DHT22;59861;50.268;8.648;2023-07-16T07:12:06;21.50;63.20
71994;DHT22;59861;50.268;8.648;2023-07-16T07:14:33;21.50;63.40
71994;DHT22;59861;50.268;8.648;2023-07-16T07:17:00;21.50;62.00
71994;DHT22;59861;50.268;8.648;2023-07-16T07:19:27;21.50;62.10
71994;DHT22;59861;50.268;8.648;2023-07-16T07:21:53;21.60;60.90
71994;DHT22;59861;50.268;8.648;2023-07-16T07:24:20;21.60;61.10
71994;DHT22;59861;50.268;8.648;2023-07-16T07:26:47;21.60;61.00
71994;DHT22;59861;50.268;8.648;2023-07-16T07:29:14;21.60;60.00
71994;DHT22;59861;50.268;8.648;2023-07-16T07:31:41;21.60;59.40
71994;DHT22;59861;50.268;8.648;2023-07-16T07:34:07;21.60;59.60
71994;DHT22;59861;50.268;8.648;2023-07-16T07:36:34;21.60;59.60
71994;DHT22;59861;50.268;8.648;2023-07-16T07:39:01;21.60;60.60
71994;DHT22;59861;50.268;8.648;2023-07-16T07:41:28;21.60;60.00
71994;DHT22;59861;50.268;8.648;2023-07-16T07:43:55;21.60;60.10
71994;DHT22;59861;50.268;8.648;2023-07-16T07:46:21;21.60;59.60
71994;DHT22;59861;50.268;8.648;2023-07-16T07:48:48;21.60;59.30
71994;DHT22;59861;50.268;8.648;2023-07-16T07:51:15;21.70;58.50
71994;DHT22;59861;50.268;8.648;2023-07-16T07:53:42;21.70;58.70
71994;DHT22;59861;50.268;8.648;2023-07-16T07:56:08;21.70;58.70
71994;DHT22;59861;50.268;8.648;2023-07-16T07:58:35;21.70;59.30
71994;DHT22;59861;50.268;8.648;2023-07-16T08:01:08;21.60;59.10
71994;DHT22;59861;50.268;8.648;2023-07-16T08:03:35;21.70;58.20
71994;DHT22;59861;50.268;8.648;2023-07-16T08:06:02;21.70;59.00
71994;DHT22;59861;50.268;8.648;2023-07-16T08:08:29;21.70;58.40
71994;DHT22;59861;50.268;8.648;2023-07-16T08:10:55;21.70;58.40
71994;DHT22;59861;50.268;8.648;2023-07-16T08:13:22;21.70;58.30
71994;DHT22;59861;50.268;8.648;2023-07-16T08:15:49;21.70;58.10
71994;DHT22;59861;50.268;8.648;2023-07-16T08:18:16;21.70;58.20
71994;DHT22;59861;50.268;8.648;2023-07-16T08:20:43;21.70;58.60
71994;DHT22;59861;50.268;8.648;2023-07-16T08:23:09;21.80;58.60
71994;DHT22;59861;50.268;8.648;2023-07-16T08:25:36;21.70;58.40
71994;DHT22;59861;50.268;8.648;2023-07-16T08:28:03;21.80;58.70
71994;DHT22;59861;50.268;8.648;2023-07-16T08:30:31;21.80;59.80
71994;DHT22;59861;50.268;8.648;2023-07-16T08:32:58;21.80;58.00
71994;DHT22;59861;50.268;8.648;2023-07-16T08:35:25;21.80;58.50
71994;DHT22;59861;50.268;8.648;2023-07-16T08:37:52;21.80;58.40
71994;DHT22;59861;50.268;8.648;2023-07-16T08:40:19;21.80;58.80
71994;DHT22;59861;50.268;8.648;2023-07-16T08:42:46;21.80;58.60
71994;DHT22;59861;50.268;8.648;2023-07-16T08:45:15;21.80;58.90
71994;DHT22;59861;50.268;8.648;2023-07-16T08:47:42;21.80;58.40
71994;DHT22;59861;50.268;8.648;2023-07-16T08:50:09;21.80;57.50
71994;DHT22;59861;50.268;8.648;2023-07-16T08:52:36;21.80;56.90
71994;DHT22;59861;50.268;8.648;2023-07-16T08:55:04;21.80;58.30
71994;DHT22;59861;50.268;8.648;2023-07-16T08:57:31;21.80;58.30
71994;DHT22;59861;50.268;8.648;2023-07-16T08:59:57;21.80;57.80
71994;DHT22;59861;50.268;8.648;2023-07-16T09:02:24;21.80;58.30
71994;DHT22;59861;50.268;8.648;2023-07-16T09:04:51;21.80;58.30
71994;DHT22;59861;50.268;8.648;2023-07-16T09:07:18;21.80;58.20
71994;DHT22;59861;50.268;8.648;2023-07-16T09:09:54;21.80;59.20
71994;DHT22;59861;50.268;8.648;2023-07-16T09:12:13;21.70;58.40
71994;DHT22;59861;50.268;8.648;2023-07-16T09:14:40;21.80;57.30
71994;DHT22;59861;50.268;8.648;2023-07-16T09:17:08;21.80;57.90
71994;DHT22;59861;50.268;8.648;2023-07-16T09:19:35;21.80;56.70
71994;DHT22;59861;50.268;8.648;2023-07-16T09:22:02;21.70;56.80
71994;DHT22;59861;50.268;8.648;2023-07-16T09:24:29;21.80;57.40
71994;DHT22;59861;50.268;8.648;2023-07-16T09:26:56;21.80;58.00
71994;DHT22;59861;50.268;8.648;2023-07-16T09:29:24;21.80;56.80
71994;DHT22;59861;50.268;8.648;2023-07-16T09:32:01;21.80;56.30
71994;DHT22;59861;50.268;8.648;2023-07-16T09:34:29;21.80;56.30
71994;DHT22;59861;50.268;8.648;2023-07-16T09:36:56;21.80;57.00
71994;DHT22;59861;50.268;8.648;2023-07-16T09:39:23;21.80;56.30
71994;DHT22;59861;50.268;8.648;2023-07-16T09:41:51;21.90;56.00
71994;DHT22;59861;50.268;8.648;2023-07-16T09:44:18;21.80;55.10
71994;DHT22;59861;50.268;8.648;2023-07-16T09:46:45;21.90;55.30
71994;DHT22;59861;50.268;8.648;2023-07-16T09:49:14;21.80;56.70
71994;DHT22;59861;50.268;8.648;2023-07-16T09:51:41;21.80;56.50
71994;DHT22;59861;50.268;8.648;2023-07-16T09:54:09;21.80;56.10
71994;DHT22;59861;50.268;8.648;2023-07-16T09:56:41;21.80;56.10
71994;DHT22;59861;50.268;8.648;2023-07-16T09:59:09;21.80;55.60
71994;DHT22;59861;50.268;8.648;2023-07-16T10:01:37;21.80;56.60
71994;DHT22;59861;50.268;8.648;2023-07-16T10:04:18;21.80;54.60
71994;DHT22;59861;50.268;8.648;2023-07-16T10:06:54;21.80;55.50
71994;DHT22;59861;50.268;8.648;2023-07-16T10:09:40;21.80;56.10
71994;DHT22;59861;50.268;8.648;2023-07-16T10:12:08;21.80;55.80
71994;DHT22;59861;50.268;8.648;2023-07-16T10:14:41;21.80;55.50
71994;DHT22;59861;50.268;8.648;2023-07-16T10:17:12;21.80;55.30
71994;DHT22;59861;50.268;8.648;2023-07-16T10:22:14;21.90;56.40
71994;DHT22;59861;50.268;8.648;2023-07-16T10:24:41;21.80;55.50
71994;DHT22;59861;50.268;8.648;2023-07-16T10:27:08;21.90;55.30
71994;DHT22;59861;50.268;8.648;2023-07-16T10:29:34;21.90;55.00
71994;DHT22;59861;50.268;8.648;2023-07-16T10:32:02;21.90;55.70
71994;DHT22;59861;50.268;8.648;2023-07-16T10:34:29;21.90;54.90
71994;DHT22;59861;50.268;8.648;2023-07-16T10:36:56;21.90;54.50
71994;DHT22;59861;50.268;8.648;2023-07-16T10:39:22;21.90;54.90
71994;DHT22;59861;50.268;8.648;2023-07-16T10:41:49;21.90;54.20
71994;DHT22;59861;50.268;8.648;2023-07-16T10:44:16;21.80;54.50
71994;DHT22;59861;50.268;8.648;2023-07-16T10:46:43;21.90;54.70
71994;DHT22;59861;50.268;8.648;2023-07-16T10:49:10;21.90;54.00
71994;DHT22;59861;50.268;8.648;2023-07-16T10:51:36;21.90;55.00
71994;DHT22;59861;50.268;8.648;2023-07-16T10:54:03;21.80;54.20
71994;DHT22;59861;50.268;8.648;2023-07-16T10:56:33;21.80;54.60
71994;DHT22;59861;50.268;8.648;2023-07-16T10:58:59;21.80;54.70
71994;DHT22;59861;50.268;8.648;2023-07-16T11:01:28;21.80;54.10
71994;DHT22;59861;50.268;8.648;2023-07-16T11:03:59;21.90;53.60
71994;DHT22;59861;50.268;8.648;2023-07-16T11:06:22;21.90;53.00
71994;DHT22;59861;50.268;8.648;2023-07-16T11:08:49;21.80;54.20
71994;DHT22;59861;50.268;8.648;2023-07-16T11:11:16;21.80;53.70
71994;DHT22;59861;50.268;8.648;2023-07-16T11:13:44;21.80;53.90
71994;DHT22;59861;50.268;8.648;2023-07-16T11:16:11;21.90;52.30
71994;DHT22;59861;50.268;8.648;2023-07-16T11:18:38;21.90;53.10
71994;DHT22;59861;50.268;8.648;2023-07-16T11:21:05;21.90;53.30
71994;DHT22;59861;50.268;8.648;2023-07-16T11:23:34;21.90;53.00
71994;DHT22;59861;50.268;8.648;2023-07-16T11:26:02;22.00;52.50
71994;DHT22;59861;50.268;8.648;2023-07-16T11:28:40;21.90;52.40
71994;DHT22;59861;50.268;8.648;2023-07-16T11:31:15;21.90;52.10
71994;DHT22;59861;50.268;8.648;2023-07-16T11:33:38;21.90;52.80
71994;DHT22;59861;50.268;8.648;2023-07-16T11:36:06;22.00;52.30
71994;DHT22;59861;50.268;8.648;2023-07-16T11:38:38;22.00;51.90
71994;DHT22;59861;50.268;8.648;2023-07-16T11:41:01;21.90;51.90
71994;DHT22;59861;50.268;8.648;2023-07-16T11:43:28;22.00;51.90
71994;DHT22;59861;50.268;8.648;2023-07-16T11:45:55;22.00;51.60
71994;DHT22;59861;50.268;8.648;2023-07-16T11:48:22;22.00;51.80
71994;DHT22;59861;50.268;8.648;2023-07-16T11:50:49;22.00;51.50
71994;DHT22;59861;50.268;8.648;2023-07-16T11:53:16;22.00;51.30
71994;DHT22;59861;50.268;8.648;2023-07-16T11:55:43;22.00;51.80
71994;DHT22;59861;50.268;8.648;2023-07-16T11:58:10;22.00;51.20
71994;DHT22;59861;50.268;8.648;2023-07-16T12:00:37;22.00;52.30
71994;DHT22;59861;50.268;8.648;2023-07-16T12:03:03;22.00;52.50
71994;DHT22;59861;50.268;8.648;2023-07-16T12:05:30;22.00;51.40
71994;DHT22;59861;50.268;8.648;2023-07-16T12:07:57;22.00;51.50
71994;DHT22;59861;50.268;8.648;2023-07-16T12:10:24;22.10;50.60
71994;DHT22;59861;50.268;8.648;2023-07-16T12:12:50;22.10;50.70
71994;DHT22;59861;50.268;8.648;2023-07-16T12:15:17;22.10;51.20
71994;DHT22;59861;50.268;8.648;2023-07-16T12:17:44;22.10;51.90
71994;DHT22;59861;50.268;8.648;2023-07-16T12:20:11;22.10;50.70
71994;DHT22;59861;50.268;8.648;2023-07-16T12:22:38;22.00;51.90
71994;DHT22;59861;50.268;8.648;2023-07-16T12:25:05;22.00;52.20
71994;DHT22;59861;50.268;8.648;2023-07-16T12:27:32;22.00;53.40
71994;DHT22;59861;50.268;8.648;2023-07-16T12:29:58;22.00;52.60
71994;DHT22;59861;50.268;8.648;2023-07-16T12:32:25;22.00;52.10
71994;DHT22;59861;50.268;8.648;2023-07-16T12:34:52;22.10;52.40
71994;DHT22;59861;50.268;8.648;2023-07-16T12:37:20;22.00;52.60
71994;DHT22;59861;50.268;8.648;2023-07-16T12:39:47;22.00;52.50
71994;DHT22;59861;50.268;8.648;2023-07-16T12:42:14;22.00;52.40
71994;DHT22;59861;50.268;8.648;2023-07-16T12:44:41;22.10;52.70
71994;DHT22;59861;50.268;8.648;2023-07-16T12:47:08;22.10;53.00
71994;DHT22;59861;50.268;8.648;2023-07-16T12:49:34;22.00;53.00
71994;DHT22;59861;50.268;8.648;2023-07-16T12:52:02;22.00;53.00
71994;DHT22;59861;50.268;8.648;2023-07-16T12:54:28;22.00;52.80
71994;DHT22;59861;50.268;8.648;2023-07-16T12:56:55;22.00;52.60
71994;DHT22;59861;50.268;8.648;2023-07-16T12:59:22;22.10;51.90
71994;DHT22;59861;50.268;8.648;2023-07-16T13:01:50;22.10;52.50
71994;DHT22;59861;50.268;8.648;2023-07-16T13:04:17;22.00;52.00
71994;DHT22;59861;50.268;8.648;2023-07-16T13:06:44;22.10;52.00
71994;DHT22;59861;50.268;8.648;2023-07-16T13:09:13;22.10;52.70
71994;DHT22;59861;50.268;8.648;2023-07-16T13:11:40;22.10;51.80
71994;DHT22;59861;50.268;8.648;2023-07-16T13:14:07;22.10;51.50
71994;DHT22;59861;50.268;8.648;2023-07-16T13:16:35;22.10;50.40
71994;DHT22;59861;50.268;8.648;2023-07-16T13:19:02;22.20;50.00
71994;DHT22;59861;50.268;8.648;2023-07-16T13:21:28;22.20;50.80
71994;DHT22;59861;50.268;8.648;2023-07-16T13:23:55;22.10;50.10
71994;DHT22;59861;50.268;8.648;2023-07-16T13:26:22;22.20;50.20
71994;DHT22;59861;50.268;8.648;2023-07-16T13:28:49;22.20;50.10
71994;DHT22;59861;50.268;8.648;2023-07-16T13:31:16;22.20;49.50
71994;DHT22;59861;50.268;8.648;2023-07-16T13:33:42;22.20;49.90
71994;DHT22;59861;50.268;8.648;2023-07-16T13:36:09;22.20;50.30
71994;DHT22;59861;50.268;8.648;2023-07-16T13:38:36;22.20;50.30
71994;DHT22;59861;50.268;8.648;2023-07-16T13:41:03;22.20;49.40
71994;DHT22;59861;50.268;8.648;2023-07-16T13:43:30;22.20;49.30
71994;DHT22;59861;50.268;8.648;2023-07-16T13:45:57;22.20;48.20
71994;DHT22;59861;50.268;8.648;2023-07-16T13:48:23;22.20;49.00
71994;DHT22;59861;50.268;8.648;2023-07-16T13:50:50;22.20;49.00
71994;DHT22;59861;50.268;8.648;2023-07-16T13:53:17;22.20;49.00
71994;DHT22;59861;50.268;8.648;2023-07-16T13:55:45;22.20;49.70
71994;DHT22;59861;50.268;8.648;2023-07-16T13:58:11;22.30;48.40
71994;DHT22;59861;50.268;8.648;2023-07-16T14:00:40;22.20;48.20
71994;DHT22;59861;50.268;8.648;2023-07-16T14:03:07;22.20;47.90
71994;DHT22;59861;50.268;8.648;2023-07-16T14:05:34;22.20;49.00
71994;DHT22;59861;50.268;8.648;2023-07-16T14:08:02;22.20;50.00
71994;DHT22;59861;50.268;8.648;2023-07-16T14:10:29;22.20;49.10
71994;DHT22;59861;50.268;8.648;2023-07-16T14:12:57;22.20;48.60
71994;DHT22;59861;50.268;8.648;2023-07-16T14:15:24;22.20;49.20
71994;DHT22;59861;50.268;8.648;2023-07-16T14:17:50;22.20;48.40
71994;DHT22;59861;50.268;8.648;2023-07-16T14:20:17;22.20;48.90
71994;DHT22;59861;50.268;8.648;2023-07-16T14:22:44;22.20;50.00
71994;DHT22;59861;50.268;8.648;2023-07-16T14:25:11;22.20;50.10
71994;DHT22;59861;50.268;8.648;2023-07-16T14:27:38;22.10;50.80
71994;DHT22;59861;50.268;8.648;2023-07-16T14:30:05;22.10;50.80
71994;DHT22;59861;50.268;8.648;2023-07-16T14:32:33;22.10;50.80
71994;DHT22;59861;50.268;8.648;2023-07-16T14:35:00;22.10;50.90
71994;DHT22;59861;50.268;8.648;2023-07-16T14:37:27;22.20;51.00
71994;DHT22;59861;50.268;8.648;2023-07-16T14:39:54;22.20;51.20
71994;DHT22;59861;50.268;8.648;2023-07-16T14:42:21;22.20;50.90
71994;DHT22;59861;50.268;8.648;2023-07-16T14:44:48;22.20;51.20
71994;DHT22;59861;50.268;8.648;2023-07-16T14:47:14;22.20;51.40
71994;DHT22;59861;50.268;8.648;2023-07-16T14:49:42;22.30;50.50
71994;DHT22;59861;50.268;8.648;2023-07-16T14:52:09;22.20;51.20
71994;DHT22;59861;50.268;8.648;2023-07-16T14:54:36;22.20;51.80
71994;DHT22;59861;50.268;8.648;2023-07-16T14:57:03;22.20;51.80
71994;DHT22;59861;50.268;8.648;2023-07-16T14:59:30;22.20;52.10
71994;DHT22;59861;50.268;8.648;2023-07-16T15:01:56;22.20;51.90
71994;DHT22;59861;50.268;8.648;2023-07-16T15:04:24;22.10;51.80
71994;DHT22;59861;50.268;8.648;2023-07-16T15:06:50;22.10;52.40
71994;DHT22;59861;50.268;8.648;2023-07-16T15:09:17;22.10;52.00
71994;DHT22;59861;50.268;8.648;2023-07-16T15:11:44;22.20;52.00
71994;DHT22;59861;50.268;8.648;2023-07-16T15:14:11;22.20;52.10
71994;DHT22;59861;50.268;8.648;2023-07-16T15:16:38;22.10;52.40
71994;DHT22;59861;50.268;8.648;2023-07-16T15:19:05;22.20;52.40
71994;DHT22;59861;50.268;8.648;2023-07-16T15:21:33;22.20;52.30
71994;DHT22;59861;50.268;8.648;2023-07-16T15:24:02;22.20;52.70
71994;DHT22;59861;50.268;8.648;2023-07-16T15:26:29;22.20;52.70
71994;DHT22;59861;50.268;8.648;2023-07-16T15:28:57;22.20;52.90
71994;DHT22;59861;50.268;8.648;2023-07-16T15:31:24;22.10;52.80
71994;DHT22;59861;50.268;8.648;2023-07-16T15:33:53;22.20;52.90
71994;DHT22;59861;50.268;8.648;2023-07-16T15:36:21;22.20;52.80
71994;DHT22;59861;50.268;8.648;2023-07-16T15:38:48;22.20;53.00